sensor_id;sensor_type;location;lat;lon;timestamp;P1;durP1;ratioP1;P2;durP2;ratioP2
47555;SDS011;33291;46.222;26.460;2024-01-16T00:01:06;11.85;;;6.15;;
47555;SDS011;33291;46.222;26.460;2024-01-16T00:03:32;14.75;;;7.57;;
47555;SDS011;33291;46.222;26.460;2024-01-16T00:05:57;12.25;;;6.30;;
47555;SDS011;33291;46.222;26.460;2024-01-16T00:08:23;14.55;;;8.32;;
47555;SDS011;33291;46.222;26.460;2024-01-16T00:10:50;9.93;;;3.90;;
47555;SDS011;33291;46.222;26.460;2024-01-16T00:13:15;4.78;;;2.75;;
47555;SDS011;33291;46.222;26.460;2024-01-16T00:15:42;9.98;;;3.58;;
47555;SDS011;33291;46.222;26.460;2024-01-16T00:18:08;17.38;;;7.63;;
47555;SDS011;33291;46.222;26.460;2024-01-16T00:20:34;17.15;;;8.80;;
47555;SDS011;33291;46.222;26.460;2024-01-16T00:22:59;14.05;;;6.15;;
47555;SDS011;33291;46.222;26.460;2024-01-16T00:25:25;9.73;;;4.93;;
47555;SDS011;33291;46.222;26.460;2024-01-16T00:27:51;9.15;;;4.80;;
47555;SDS011;33291;46.222;26.460;2024-01-16T00:30:16;17.45;;;6.40;;
47555;SDS011;33291;46.222;26.460;2024-01-16T00:32:43;12.25;;;5.68;;
47555;SDS011;33291;46.222;26.460;2024-01-16T00:35:08;7.88;;;5.03;;
47555;SDS011;33291;46.222;26.460;2024-01-16T00:37:35;8.95;;;4.15;;
47555;SDS011;33291;46.222;26.460;2024-01-16T00:40:01;6.22;;;3.55;;
47555;SDS011;33291;46.222;26.460;2024-01-16T00:42:29;5.60;;;2.90;;
47555;SDS011;33291;46.222;26.460;2024-01-16T00:44:55;15.20;;;8.43;;
47555;SDS011;33291;46.222;26.460;2024-01-16T00:47:21;9.70;;;4.78;;
47555;SDS011;33291;46.222;26.460;2024-01-16T00:49:46;8.68;;;4.47;;
47555;SDS011;33291;46.222;26.460;2024-01-16T00:52:12;8.23;;;3.95;;
47555;SDS011;33291;46.222;26.460;2024-01-16T00:54:38;14.68;;;6.72;;
47555;SDS011;33291;46.222;26.460;2024-01-16T00:57:04;9.48;;;4.97;;
47555;SDS011;33291;46.222;26.460;2024-01-16T00:59:30;9.65;;;5.78;;
47555;SDS011;33291;46.222;26.460;2024-01-16T01:01:55;11.50;;;6.57;;
47555;SDS011;33291;46.222;26.460;2024-01-16T01:04:21;16.30;;;7.15;;
47555;SDS011;33291;46.222;26.460;2024-01-16T01:06:46;12.50;;;6.40;;
47555;SDS011;33291;46.222;26.460;2024-01-16T01:09:12;20.73;;;9.50;;
47555;SDS011;33291;46.222;26.460;2024-01-16T01:11:38;18.75;;;7.45;;
47555;SDS011;33291;46.222;26.460;2024-01-16T01:14:05;17.92;;;7.90;;
47555;SDS011;33291;46.222;26.460;2024-01-16T01:16:31;16.20;;;7.15;;
47555;SDS011;33291;46.222;26.460;2024-01-16T01:18:56;12.43;;;5.63;;
47555;SDS011;33291;46.222;26.460;2024-01-16T01:21:22;5.45;;;2.42;;
47555;SDS011;33291;46.222;26.460;2024-01-16T01:23:48;3.97;;;2.30;;
47555;SDS011;33291;46.222;26.460;2024-01-16T01:26:13;3.35;;;2.33;;
47555;SDS011;33291;46.222;26.460;2024-01-16T01:28:39;4.57;;;2.35;;
47555;SDS011;33291;46.222;26.460;2024-01-16T01:31:08;12.00;;;5.88;;
47555;SDS011;33291;46.222;26.460;2024-01-16T01:33:34;7.13;;;4.13;;
47555;SDS011;33291;46.222;26.460;2024-01-16T01:35:59;6.25;;;3.70;;
47555;SDS011;33291;46.222;26.460;2024-01-16T01:38:25;4.82;;;3.22;;
47555;SDS011;33291;46.222;26.460;2024-01-16T01:40:50;5.35;;;2.83;;
47555;SDS011;33291;46.222;26.460;2024-01-16T01:43:23;5.15;;;3.00;;
47555;SDS011;33291;46.222;26.460;2024-01-16T01:48:52;6.20;;;2.67;;
47555;SDS011;33291;46.222;26.460;2024-01-16T01:51:18;6.75;;;2.40;;
47555;SDS011;33291;46.222;26.460;2024-01-16T01:53:45;2.22;;;1.40;;
47555;SDS011;33291;46.222;26.460;2024-01-16T01:56:19;8.95;;;1.40;;
47555;SDS011;33291;46.222;26.460;2024-01-16T01:58:47;1.40;;;0.65;;
47555;SDS011;33291;46.222;26.460;2024-01-16T02:01:15;3.03;;;1.17;;
47555;SDS011;33291;46.222;26.460;2024-01-16T02:03:43;1.40;;;0.73;;
47555;SDS011;33291;46.222;26.460;2024-01-16T02:06:10;1.67;;;0.68;;
47555;SDS011;33291;46.222;26.460;2024-01-16T02:08:37;0.50;;;0.40;;
47555;SDS011;33291;46.222;26.460;2024-01-16T02:11:03;1.23;;;0.50;;
47555;SDS011;33291;46.222;26.460;2024-01-16T02:13:29;1.95;;;0.80;;
47555;SDS011;33291;46.222;26.460;2024-01-16T02:15:54;0.47;;;0.47;;
47555;SDS011;33291;46.222;26.460;2024-01-16T02:18:20;0.77;;;0.40;;
47555;SDS011;33291;46.222;26.460;2024-01-16T02:20:45;1.70;;;0.40;;
47555;SDS011;33291;46.222;26.460;2024-01-16T02:23:13;0.70;;;0.40;;
47555;SDS011;33291;46.222;26.460;2024-01-16T02:25:40;0.47;;;0.43;;
47555;SDS011;33291;46.222;26.460;2024-01-16T02:28:06;0.88;;;0.47;;
47555;SDS011;33291;46.222;26.460;2024-01-16T02:30:32;1.10;;;0.50;;
47555;SDS011;33291;46.222;26.460;2024-01-16T02:32:58;1.10;;;0.40;;
47555;SDS011;33291;46.222;26.460;2024-01-16T02:35:24;0.60;;;0.30;;
47555;SDS011;33291;46.222;26.460;2024-01-16T02:37:50;0.95;;;0.60;;
47555;SDS011;33291;46.222;26.460;2024-01-16T02:40:15;1.48;;;0.70;;
47555;SDS011;33291;46.222;26.460;2024-01-16T02:42:41;0.73;;;0.45;;
47555;SDS011;33291;46.222;26.460;2024-01-16T02:45:07;0.52;;;0.30;;
47555;SDS011;33291;46.222;26.460;2024-01-16T02:47:32;3.17;;;0.50;;
47555;SDS011;33291;46.222;26.460;2024-01-16T02:49:59;2.97;;;1.00;;
47555;SDS011;33291;46.222;26.460;2024-01-16T02:52:24;1.15;;;0.50;;
47555;SDS011;33291;46.222;26.460;2024-01-16T02:54:50;31.30;;;14.20;;
47555;SDS011;33291;46.222;26.460;2024-01-16T02:57:16;0.70;;;0.40;;
47555;SDS011;33291;46.222;26.460;2024-01-16T02:59:44;1.27;;;0.57;;
47555;SDS011;33291;46.222;26.460;2024-01-16T03:02:10;0.43;;;0.20;;
47555;SDS011;33291;46.222;26.460;2024-01-16T03:04:36;0.55;;;0.20;;
47555;SDS011;33291;46.222;26.460;2024-01-16T03:07:02;1.45;;;0.47;;
47555;SDS011;33291;46.222;26.460;2024-01-16T03:09:28;0.82;;;0.50;;
47555;SDS011;33291;46.222;26.460;2024-01-16T03:11:53;0.90;;;0.40;;
47555;SDS011;33291;46.222;26.460;2024-01-16T03:14:19;0.30;;;0.28;;
47555;SDS011;33291;46.222;26.460;2024-01-16T03:16:45;0.40;;;0.20;;
47555;SDS011;33291;46.222;26.460;2024-01-16T03:19:11;0.35;;;0.22;;
47555;SDS011;33291;46.222;26.460;2024-01-16T03:21:37;1.00;;;0.35;;
47555;SDS011;33291;46.222;26.460;2024-01-16T03:24:04;0.80;;;0.60;;
47555;SDS011;33291;46.222;26.460;2024-01-16T03:26:31;1.15;;;0.50;;
47555;SDS011;33291;46.222;26.460;2024-01-16T03:28:57;0.77;;;0.32;;
47555;SDS011;33291;46.222;26.460;2024-01-16T03:31:23;1.13;;;0.40;;
47555;SDS011;33291;46.222;26.460;2024-01-16T03:33:49;1.08;;;0.40;;
47555;SDS011;33291;46.222;26.460;2024-01-16T03:36:14;0.43;;;0.22;;
47555;SDS011;33291;46.222;26.460;2024-01-16T03:38:41;0.45;;;0.20;;
47555;SDS011;33291;46.222;26.460;2024-01-16T03:41:08;0.40;;;0.30;;
47555;SDS011;33291;46.222;26.460;2024-01-16T03:43:35;0.75;;;0.40;;
47555;SDS011;33291;46.222;26.460;2024-01-16T03:46:01;0.20;;;0.10;;
47555;SDS011;33291;46.222;26.460;2024-01-16T03:48:26;0.70;;;0.20;;
47555;SDS011;33291;46.222;26.460;2024-01-16T03:50:52;0.63;;;0.20;;
47555;SDS011;33291;46.222;26.460;2024-01-16T03:53:19;0.52;;;0.30;;
47555;SDS011;33291;46.222;26.460;2024-01-16T03:55:46;0.90;;;0.35;;
47555;SDS011;33291;46.222;26.460;2024-01-16T03:58:12;0.40;;;0.30;;
47555;SDS011;33291;46.222;26.460;2024-01-16T04:00:38;0.93;;;0.47;;
47555;SDS011;33291;46.222;26.460;2024-01-16T04:03:03;0.93;;;0.40;;
47555;SDS011;33291;46.222;26.460;2024-01-16T04:05:29;1.17;;;0.10;;
47555;SDS011;33291;46.222;26.460;2024-01-16T04:07:56;0.45;;;0.10;;
47555;SDS011;33291;46.222;26.460;2024-01-16T04:10:22;0.22;;;0.22;;
47555;SDS011;33291;46.222;26.460;2024-01-16T04:12:47;0.40;;;0.30;;
47555;SDS011;33291;46.222;26.460;2024-01-16T04:15:13;1.00;;;0.40;;
47555;SDS011;33291;46.222;26.460;2024-01-16T04:17:38;0.35;;;0.20;;
47555;SDS011;33291;46.222;26.460;2024-01-16T04:20:04;0.30;;;0.20;;
47555;SDS011;33291;46.222;26.460;2024-01-16T04:22:32;0.80;;;0.28;;
47555;SDS011;33291;46.222;26.460;2024-01-16T04:24:58;0.43;;;0.10;;
47555;SDS011;33291;46.222;26.460;2024-01-16T04:27:24;0.20;;;0.10;;
47555;SDS011;33291;46.222;26.460;2024-01-16T04:29:50;0.60;;;0.22;;
47555;SDS011;33291;46.222;26.460;2024-01-16T04:32:16;1.85;;;0.60;;
47555;SDS011;33291;46.222;26.460;2024-01-16T04:34:42;0.40;;;0.17;;
47555;SDS011;33291;46.222;26.460;2024-01-16T04:37:08;1.38;;;0.30;;
47555;SDS011;33291;46.222;26.460;2024-01-16T04:39:33;0.63;;;0.20;;
47555;SDS011;33291;46.222;26.460;2024-01-16T04:41:59;0.75;;;0.30;;
47555;SDS011;33291;46.222;26.460;2024-01-16T04:44:24;0.38;;;0.20;;
47555;SDS011;33291;46.222;26.460;2024-01-16T04:46:50;0.22;;;0.17;;
47555;SDS011;33291;46.222;26.460;2024-01-16T04:49:15;2.83;;;0.22;;
47555;SDS011;33291;46.222;26.460;2024-01-16T04:51:41;0.10;;;0.10;;
47555;SDS011;33291;46.222;26.460;2024-01-16T04:54:07;0.35;;;0.20;;
47555;SDS011;33291;46.222;26.460;2024-01-16T04:56:32;0.60;;;0.40;;
47555;SDS011;33291;46.222;26.460;2024-01-16T04:58:58;0.35;;;0.15;;
47555;SDS011;33291;46.222;26.460;2024-01-16T05:01:24;0.30;;;0.05;;
47555;SDS011;33291;46.222;26.460;2024-01-16T05:03:50;0.43;;;0.10;;
47555;SDS011;33291;46.222;26.460;2024-01-16T05:06:15;0.20;;;0.10;;
47555;SDS011;33291;46.222;26.460;2024-01-16T05:08:42;0.82;;;0.52;;
47555;SDS011;33291;46.222;26.460;2024-01-16T05:11:08;0.77;;;0.30;;
47555;SDS011;33291;46.222;26.460;2024-01-16T05:13:34;0.93;;;0.30;;
47555;SDS011;33291;46.222;26.460;2024-01-16T05:16:00;2.05;;;1.17;;
47555;SDS011;33291;46.222;26.460;2024-01-16T05:18:25;1.25;;;0.28;;
47555;SDS011;33291;46.222;26.460;2024-01-16T05:20:51;1.10;;;0.50;;
47555;SDS011;33291;46.222;26.460;2024-01-16T05:23:17;1.05;;;0.30;;
47555;SDS011;33291;46.222;26.460;2024-01-16T05:25:43;0.50;;;0.25;;
47555;SDS011;33291;46.222;26.460;2024-01-16T05:28:09;0.47;;;0.40;;
47555;SDS011;33291;46.222;26.460;2024-01-16T05:30:35;1.33;;;0.20;;
47555;SDS011;33291;46.222;26.460;2024-01-16T05:33:01;0.30;;;0.13;;
47555;SDS011;33291;46.222;26.460;2024-01-16T05:35:27;0.57;;;0.30;;
47555;SDS011;33291;46.222;26.460;2024-01-16T05:37:53;0.65;;;0.30;;
47555;SDS011;33291;46.222;26.460;2024-01-16T05:40:19;0.50;;;0.10;;
47555;SDS011;33291;46.222;26.460;2024-01-16T05:42:44;6.55;;;3.08;;
47555;SDS011;33291;46.222;26.460;2024-01-16T05:45:10;2.35;;;1.95;;
47555;SDS011;33291;46.222;26.460;2024-01-16T05:47:36;2.25;;;1.27;;
47555;SDS011;33291;46.222;26.460;2024-01-16T05:50:01;0.73;;;0.30;;
47555;SDS011;33291;46.222;26.460;2024-01-16T05:52:27;0.80;;;0.28;;
47555;SDS011;33291;46.222;26.460;2024-01-16T05:54:53;0.57;;;0.35;;
47555;SDS011;33291;46.222;26.460;2024-01-16T05:57:22;0.68;;;0.20;;
47555;SDS011;33291;46.222;26.460;2024-01-16T05:59:48;0.08;;;0.03;;
47555;SDS011;33291;46.222;26.460;2024-01-16T06:02:13;0.28;;;0.10;;
47555;SDS011;33291;46.222;26.460;2024-01-16T06:04:39;0.93;;;0.38;;
47555;SDS011;33291;46.222;26.460;2024-01-16T06:07:05;0.43;;;0.13;;
47555;SDS011;33291;46.222;26.460;2024-01-16T06:09:32;0.20;;;0.10;;
47555;SDS011;33291;46.222;26.460;2024-01-16T06:11:58;0.25;;;0.10;;
47555;SDS011;33291;46.222;26.460;2024-01-16T06:14:23;1.52;;;0.68;;
47555;SDS011;33291;46.222;26.460;2024-01-16T06:16:49;0.45;;;0.20;;
47555;SDS011;33291;46.222;26.460;2024-01-16T06:19:16;0.30;;;0.28;;
47555;SDS011;33291;46.222;26.460;2024-01-16T06:21:41;0.52;;;0.22;;
47555;SDS011;33291;46.222;26.460;2024-01-16T06:24:07;0.82;;;0.40;;
47555;SDS011;33291;46.222;26.460;2024-01-16T06:26:33;1.63;;;0.60;;
47555;SDS011;33291;46.222;26.460;2024-01-16T06:28:58;2.17;;;0.70;;
47555;SDS011;33291;46.222;26.460;2024-01-16T06:31:24;0.82;;;0.60;;
47555;SDS011;33291;46.222;26.460;2024-01-16T06:33:51;2.45;;;0.50;;
47555;SDS011;33291;46.222;26.460;2024-01-16T06:36:17;1.40;;;0.60;;
47555;SDS011;33291;46.222;26.460;2024-01-16T06:38:42;1.48;;;0.73;;
47555;SDS011;33291;46.222;26.460;2024-01-16T06:41:08;1.48;;;0.77;;
47555;SDS011;33291;46.222;26.460;2024-01-16T06:43:34;2.33;;;1.02;;
47555;SDS011;33291;46.222;26.460;2024-01-16T06:46:00;2.33;;;1.60;;
47555;SDS011;33291;46.222;26.460;2024-01-16T06:48:26;24.65;;;15.38;;
47555;SDS011;33291;46.222;26.460;2024-01-16T06:50:51;4.95;;;3.38;;
47555;SDS011;33291;46.222;26.460;2024-01-16T06:53:17;1.13;;;0.70;;
47555;SDS011;33291;46.222;26.460;2024-01-16T06:55:42;1.90;;;0.73;;
47555;SDS011;33291;46.222;26.460;2024-01-16T06:58:08;1.58;;;0.82;;
47555;SDS011;33291;46.222;26.460;2024-01-16T07:00:35;3.60;;;1.90;;
47555;SDS011;33291;46.222;26.460;2024-01-16T07:03:01;0.95;;;0.60;;
47555;SDS011;33291;46.222;26.460;2024-01-16T07:05:27;1.50;;;0.88;;
47555;SDS011;33291;46.222;26.460;2024-01-16T07:07:54;0.90;;;0.50;;
47555;SDS011;33291;46.222;26.460;2024-01-16T07:10:20;2.22;;;0.95;;
47555;SDS011;33291;46.222;26.460;2024-01-16T07:12:47;1.08;;;0.60;;
47555;SDS011;33291;46.222;26.460;2024-01-16T07:15:14;1.17;;;0.60;;
47555;SDS011;33291;46.222;26.460;2024-01-16T07:17:40;1.42;;;0.68;;
47555;SDS011;33291;46.222;26.460;2024-01-16T07:20:06;1.42;;;0.60;;
47555;SDS011;33291;46.222;26.460;2024-01-16T07:22:32;2.13;;;0.98;;
47555;SDS011;33291;46.222;26.460;2024-01-16T07:24:59;3.45;;;1.10;;
47555;SDS011;33291;46.222;26.460;2024-01-16T07:27:25;2.75;;;1.48;;
47555;SDS011;33291;46.222;26.460;2024-01-16T07:29:51;4.38;;;1.90;;
47555;SDS011;33291;46.222;26.460;2024-01-16T07:32:16;3.35;;;1.15;;
47555;SDS011;33291;46.222;26.460;2024-01-16T07:34:42;2.60;;;1.38;;
47555;SDS011;33291;46.222;26.460;2024-01-16T07:37:08;2.65;;;0.77;;
47555;SDS011;33291;46.222;26.460;2024-01-16T07:39:33;4.95;;;1.80;;
47555;SDS011;33291;46.222;26.460;2024-01-16T07:41:59;6.53;;;2.40;;
47555;SDS011;33291;46.222;26.460;2024-01-16T07:44:25;3.13;;;1.42;;
47555;SDS011;33291;46.222;26.460;2024-01-16T07:46:50;1.95;;;0.82;;
47555;SDS011;33291;46.222;26.460;2024-01-16T07:49:16;5.22;;;1.85;;
47555;SDS011;33291;46.222;26.460;2024-01-16T07:51:41;1.13;;;0.68;;
47555;SDS011;33291;46.222;26.460;2024-01-16T07:54:08;4.80;;;0.80;;
47555;SDS011;33291;46.222;26.460;2024-01-16T07:56:34;2.60;;;0.80;;
47555;SDS011;33291;46.222;26.460;2024-01-16T07:59:01;3.20;;;1.50;;
47555;SDS011;33291;46.222;26.460;2024-01-16T08:01:29;2.28;;;1.10;;
47555;SDS011;33291;46.222;26.460;2024-01-16T08:03:55;2.40;;;1.15;;
47555;SDS011;33291;46.222;26.460;2024-01-16T08:06:21;1.90;;;1.05;;
47555;SDS011;33291;46.222;26.460;2024-01-16T08:08:48;2.22;;;0.88;;
47555;SDS011;33291;46.222;26.460;2024-01-16T08:11:14;1.73;;;0.88;;
47555;SDS011;33291;46.222;26.460;2024-01-16T08:13:40;1.55;;;0.60;;
47555;SDS011;33291;46.222;26.460;2024-01-16T08:16:05;0.98;;;0.55;;
47555;SDS011;33291;46.222;26.460;2024-01-16T08:18:31;3.63;;;1.13;;
47555;SDS011;33291;46.222;26.460;2024-01-16T08:20:57;0.90;;;0.68;;
47555;SDS011;33291;46.222;26.460;2024-01-16T08:23:22;3.25;;;1.10;;
47555;SDS011;33291;46.222;26.460;2024-01-16T08:25:48;2.22;;;0.80;;
47555;SDS011;33291;46.222;26.460;2024-01-16T08:28:14;2.50;;;1.15;;
47555;SDS011;33291;46.222;26.460;2024-01-16T08:30:40;2.72;;;1.05;;
47555;SDS011;33291;46.222;26.460;2024-01-16T08:33:06;2.30;;;0.80;;
47555;SDS011;33291;46.222;26.460;2024-01-16T08:35:32;1.00;;;0.77;;
47555;SDS011;33291;46.222;26.460;2024-01-16T08:37:58;1.48;;;0.95;;
47555;SDS011;33291;46.222;26.460;2024-01-16T08:40:24;2.30;;;0.95;;
47555;SDS011;33291;46.222;26.460;2024-01-16T08:42:49;2.33;;;0.88;;
47555;SDS011;33291;46.222;26.460;2024-01-16T08:45:20;1.38;;;0.93;;
47555;SDS011;33291;46.222;26.460;2024-01-16T08:47:46;2.92;;;1.10;;
47555;SDS011;33291;46.222;26.460;2024-01-16T08:50:11;1.25;;;0.85;;
47555;SDS011;33291;46.222;26.460;2024-01-16T08:52:37;1.90;;;1.17;;
47555;SDS011;33291;46.222;26.460;2024-01-16T08:55:02;3.22;;;0.90;;
47555;SDS011;33291;46.222;26.460;2024-01-16T08:57:29;2.00;;;1.38;;
47555;SDS011;33291;46.222;26.460;2024-01-16T08:59:54;1.95;;;1.10;;
47555;SDS011;33291;46.222;26.460;2024-01-16T09:02:20;2.28;;;1.25;;
47555;SDS011;33291;46.222;26.460;2024-01-16T09:04:46;3.70;;;1.52;;
47555;SDS011;33291;46.222;26.460;2024-01-16T09:07:12;3.05;;;1.25;;
47555;SDS011;33291;46.222;26.460;2024-01-16T09:09:41;2.22;;;1.02;;
47555;SDS011;33291;46.222;26.460;2024-01-16T09:12:08;3.53;;;1.25;;
47555;SDS011;33291;46.222;26.460;2024-01-16T09:14:34;3.58;;;1.60;;
47555;SDS011;33291;46.222;26.460;2024-01-16T09:16:59;2.83;;;1.40;;
47555;SDS011;33291;46.222;26.460;2024-01-16T09:19:25;2.10;;;1.10;;
47555;SDS011;33291;46.222;26.460;2024-01-16T09:21:50;2.92;;;1.20;;
47555;SDS011;33291;46.222;26.460;2024-01-16T09:24:16;2.28;;;0.90;;
47555;SDS011;33291;46.222;26.460;2024-01-16T09:26:42;1.30;;;0.77;;
47555;SDS011;33291;46.222;26.460;2024-01-16T09:29:09;2.00;;;1.13;;
47555;SDS011;33291;46.222;26.460;2024-01-16T09:31:35;3.97;;;2.33;;
47555;SDS011;33291;46.222;26.460;2024-01-16T09:34:01;2.85;;;1.38;;
47555;SDS011;33291;46.222;26.460;2024-01-16T09:36:29;2.28;;;1.25;;
47555;SDS011;33291;46.222;26.460;2024-01-16T09:38:55;1.95;;;1.02;;
47555;SDS011;33291;46.222;26.460;2024-01-16T09:41:20;3.60;;;1.63;;
47555;SDS011;33291;46.222;26.460;2024-01-16T09:43:47;3.17;;;1.08;;
47555;SDS011;33291;46.222;26.460;2024-01-16T09:46:12;2.40;;;1.15;;
47555;SDS011;33291;46.222;26.460;2024-01-16T09:48:41;2.35;;;1.42;;
47555;SDS011;33291;46.222;26.460;2024-01-16T09:51:10;1.60;;;0.82;;
47555;SDS011;33291;46.222;26.460;2024-01-16T09:53:40;3.92;;;1.25;;
47555;SDS011;33291;46.222;26.460;2024-01-16T09:56:06;3.95;;;1.83;;
47555;SDS011;33291;46.222;26.460;2024-01-16T09:58:39;3.03;;;1.53;;
47555;SDS011;33291;46.222;26.460;2024-01-16T10:01:05;2.30;;;1.13;;
47555;SDS011;33291;46.222;26.460;2024-01-16T10:03:31;2.38;;;1.25;;
47555;SDS011;33291;46.222;26.460;2024-01-16T10:05:58;2.15;;;1.38;;
47555;SDS011;33291;46.222;26.460;2024-01-16T10:08:25;2.70;;;1.38;;
47555;SDS011;33291;46.222;26.460;2024-01-16T10:10:52;3.08;;;1.38;;
47555;SDS011;33291;46.222;26.460;2024-01-16T10:13:17;3.42;;;1.77;;
47555;SDS011;33291;46.222;26.460;2024-01-16T10:15:44;3.95;;;1.35;;
47555;SDS011;33291;46.222;26.460;2024-01-16T10:18:22;2.22;;;1.10;;
47555;SDS011;33291;46.222;26.460;2024-01-16T10:20:51;3.47;;;1.80;;
47555;SDS011;33291;46.222;26.460;2024-01-16T10:23:26;5.40;;;2.00;;
47555;SDS011;33291;46.222;26.460;2024-01-16T10:28:34;3.25;;;1.40;;
47555;SDS011;33291;46.222;26.460;2024-01-16T10:31:04;6.55;;;2.03;;
47555;SDS011;33291;46.222;26.460;2024-01-16T10:33:30;2.95;;;1.40;;
47555;SDS011;33291;46.222;26.460;2024-01-16T10:38:35;6.13;;;1.40;;
47555;SDS011;33291;46.222;26.460;2024-01-16T10:41:05;2.10;;;1.38;;
47555;SDS011;33291;46.222;26.460;2024-01-16T10:43:34;2.78;;;1.60;;
47555;SDS011;33291;46.222;26.460;2024-01-16T10:46:13;2.92;;;1.48;;
47555;SDS011;33291;46.222;26.460;2024-01-16T10:48:40;2.95;;;1.48;;
47555;SDS011;33291;46.222;26.460;2024-01-16T10:51:09;2.67;;;1.25;;
47555;SDS011;33291;46.222;26.460;2024-01-16T10:53:37;4.40;;;1.85;;
47555;SDS011;33291;46.222;26.460;2024-01-16T10:56:06;3.30;;;1.65;;
47555;SDS011;33291;46.222;26.460;2024-01-16T10:58:41;2.13;;;1.23;;
47555;SDS011;33291;46.222;26.460;2024-01-16T11:01:09;1.77;;;1.33;;
47555;SDS011;33291;46.222;26.460;2024-01-16T11:03:40;1.20;;;0.80;;
47555;SDS011;33291;46.222;26.460;2024-01-16T11:06:12;2.40;;;0.82;;
47555;SDS011;33291;46.222;26.460;2024-01-16T11:08:40;3.25;;;1.38;;
47555;SDS011;33291;46.222;26.460;2024-01-16T11:11:07;1.95;;;1.10;;
47555;SDS011;33291;46.222;26.460;2024-01-16T11:13:33;1.85;;;0.80;;
47555;SDS011;33291;46.222;26.460;2024-01-16T11:16:00;1.70;;;1.08;;
47555;SDS011;33291;46.222;26.460;2024-01-16T11:18:29;1.63;;;0.90;;
47555;SDS011;33291;46.222;26.460;2024-01-16T11:20:56;1.50;;;0.85;;
47555;SDS011;33291;46.222;26.460;2024-01-16T11:23:23;1.83;;;1.00;;
47555;SDS011;33291;46.222;26.460;2024-01-16T11:25:49;2.95;;;0.98;;
47555;SDS011;33291;46.222;26.460;2024-01-16T11:28:14;2.92;;;1.38;;
47555;SDS011;33291;46.222;26.460;2024-01-16T11:30:41;3.13;;;1.35;;
47555;SDS011;33291;46.222;26.460;2024-01-16T11:35:57;3.60;;;2.03;;
47555;SDS011;33291;46.222;26.460;2024-01-16T11:38:24;2.47;;;1.10;;
47555;SDS011;33291;46.222;26.460;2024-01-16T11:40:52;2.88;;;1.70;;
47555;SDS011;33291;46.222;26.460;2024-01-16T11:46:13;6.93;;;3.00;;
47555;SDS011;33291;46.222;26.460;2024-01-16T11:48:38;2.65;;;1.42;;
47555;SDS011;33291;46.222;26.460;2024-01-16T11:51:23;2.42;;;1.20;;
47555;SDS011;33291;46.222;26.460;2024-01-16T11:53:49;4.25;;;2.20;;
47555;SDS011;33291;46.222;26.460;2024-01-16T11:56:25;4.72;;;1.55;;
47555;SDS011;33291;46.222;26.460;2024-01-16T12:01:46;5.43;;;2.03;;
47555;SDS011;33291;46.222;26.460;2024-01-16T12:04:17;2.25;;;1.55;;
47555;SDS011;33291;46.222;26.460;2024-01-16T12:06:46;3.70;;;2.20;;
47555;SDS011;33291;46.222;26.460;2024-01-16T12:09:26;2.88;;;1.20;;
47555;SDS011;33291;46.222;26.460;2024-01-16T12:11:59;2.13;;;1.50;;
47555;SDS011;33291;46.222;26.460;2024-01-16T12:14:26;2.17;;;1.42;;
47555;SDS011;33291;46.222;26.460;2024-01-16T12:16:52;2.30;;;1.23;;
47555;SDS011;33291;46.222;26.460;2024-01-16T12:19:33;3.17;;;1.75;;
47555;SDS011;33291;46.222;26.460;2024-01-16T12:21:58;2.78;;;1.48;;
47555;SDS011;33291;46.222;26.460;2024-01-16T12:24:24;2.05;;;1.38;;
47555;SDS011;33291;46.222;26.460;2024-01-16T12:26:50;2.25;;;1.10;;
47555;SDS011;33291;46.222;26.460;2024-01-16T12:29:17;2.42;;;1.30;;
47555;SDS011;33291;46.222;26.460;2024-01-16T12:31:43;3.67;;;1.33;;
47555;SDS011;33291;46.222;26.460;2024-01-16T12:34:09;3.22;;;1.60;;
47555;SDS011;33291;46.222;26.460;2024-01-16T12:36:35;1.10;;;0.70;;
47555;SDS011;33291;46.222;26.460;2024-01-16T12:39:01;1.85;;;1.10;;
47555;SDS011;33291;46.222;26.460;2024-01-16T12:41:28;2.90;;;1.02;;
47555;SDS011;33291;46.222;26.460;2024-01-16T12:43:58;1.98;;;1.00;;
47555;SDS011;33291;46.222;26.460;2024-01-16T12:46:24;2.78;;;1.15;;
47555;SDS011;33291;46.222;26.460;2024-01-16T12:48:50;3.83;;;1.85;;
47555;SDS011;33291;46.222;26.460;2024-01-16T12:51:22;3.85;;;1.73;;
47555;SDS011;33291;46.222;26.460;2024-01-16T12:53:48;2.38;;;1.40;;
47555;SDS011;33291;46.222;26.460;2024-01-16T12:56:17;3.83;;;1.38;;
47555;SDS011;33291;46.222;26.460;2024-01-16T12:58:44;1.83;;;1.30;;
47555;SDS011;33291;46.222;26.460;2024-01-16T13:01:24;1.38;;;0.82;;
47555;SDS011;33291;46.222;26.460;2024-01-16T13:03:51;3.50;;;1.50;;
47555;SDS011;33291;46.222;26.460;2024-01-16T13:06:18;1.73;;;0.82;;
47555;SDS011;33291;46.222;26.460;2024-01-16T13:08:47;3.05;;;1.55;;
47555;SDS011;33291;46.222;26.460;2024-01-16T13:11:17;3.30;;;1.90;;
47555;SDS011;33291;46.222;26.460;2024-01-16T13:13:46;2.85;;;1.45;;
47555;SDS011;33291;46.222;26.460;2024-01-16T13:16:16;4.43;;;1.50;;
47555;SDS011;33291;46.222;26.460;2024-01-16T13:18:42;2.63;;;1.45;;
47555;SDS011;33291;46.222;26.460;2024-01-16T13:21:08;4.40;;;1.92;;
47555;SDS011;33291;46.222;26.460;2024-01-16T13:23:34;2.90;;;1.45;;
47555;SDS011;33291;46.222;26.460;2024-01-16T13:26:00;2.13;;;1.38;;
47555;SDS011;33291;46.222;26.460;2024-01-16T13:28:29;3.45;;;1.30;;
47555;SDS011;33291;46.222;26.460;2024-01-16T13:30:55;2.50;;;1.30;;
47555;SDS011;33291;46.222;26.460;2024-01-16T13:33:24;4.78;;;1.02;;
47555;SDS011;33291;46.222;26.460;2024-01-16T13:35:53;2.58;;;1.40;;
47555;SDS011;33291;46.222;26.460;2024-01-16T13:38:22;2.15;;;0.98;;
47555;SDS011;33291;46.222;26.460;2024-01-16T13:40:48;3.85;;;1.55;;
47555;SDS011;33291;46.222;26.460;2024-01-16T13:43:15;2.53;;;1.20;;
47555;SDS011;33291;46.222;26.460;2024-01-16T13:45:41;2.67;;;1.50;;
47555;SDS011;33291;46.222;26.460;2024-01-16T13:48:06;3.47;;;1.85;;
47555;SDS011;33291;46.222;26.460;2024-01-16T13:50:33;2.80;;;1.38;;
47555;SDS011;33291;46.222;26.460;2024-01-16T13:52:59;4.03;;;1.63;;
47555;SDS011;33291;46.222;26.460;2024-01-16T13:55:25;3.38;;;1.75;;
47555;SDS011;33291;46.222;26.460;2024-01-16T13:57:51;3.58;;;1.60;;
47555;SDS011;33291;46.222;26.460;2024-01-16T14:00:16;3.42;;;2.17;;
47555;SDS011;33291;46.222;26.460;2024-01-16T14:02:43;5.35;;;2.35;;
47555;SDS011;33291;46.222;26.460;2024-01-16T14:05:11;3.47;;;1.75;;
47555;SDS011;33291;46.222;26.460;2024-01-16T14:07:40;2.45;;;1.63;;
47555;SDS011;33291;46.222;26.460;2024-01-16T14:10:09;3.30;;;1.75;;
47555;SDS011;33291;46.222;26.460;2024-01-16T14:12:37;3.28;;;1.92;;
47555;SDS011;33291;46.222;26.460;2024-01-16T14:15:08;5.75;;;2.60;;
47555;SDS011;33291;46.222;26.460;2024-01-16T14:17:44;7.63;;;2.92;;
47555;SDS011;33291;46.222;26.460;2024-01-16T14:20:14;5.60;;;2.38;;
47555;SDS011;33291;46.222;26.460;2024-01-16T14:22:41;4.95;;;1.85;;
47555;SDS011;33291;46.222;26.460;2024-01-16T14:25:08;2.72;;;1.40;;
47555;SDS011;33291;46.222;26.460;2024-01-16T14:27:40;3.58;;;1.92;;
47555;SDS011;33291;46.222;26.460;2024-01-16T14:30:12;9.80;;;4.43;;
47555;SDS011;33291;46.222;26.460;2024-01-16T14:32:42;6.15;;;3.17;;
47555;SDS011;33291;46.222;26.460;2024-01-16T14:35:10;3.67;;;1.85;;
47555;SDS011;33291;46.222;26.460;2024-01-16T14:37:38;2.67;;;1.67;;
47555;SDS011;33291;46.222;26.460;2024-01-16T14:40:06;4.25;;;2.03;;
47555;SDS011;33291;46.222;26.460;2024-01-16T14:42:37;4.90;;;2.25;;
47555;SDS011;33291;46.222;26.460;2024-01-16T14:45:06;4.07;;;2.00;;
47555;SDS011;33291;46.222;26.460;2024-01-16T14:47:33;2.45;;;1.65;;